Time;durP1;ratioP1;P1;durP2;ratioP2;P2;SDS_P1;SDS_P2;PMS_P1;PMS_P2;Temp;Humidity;BMP_temperature;BMP_pressure;BME280_temperature;BME280_humidity;BME280_pressure;Samples;Min_cycle;Max_cycle;Signal;HPM_P1;HPM_P2
2021/09/04 00:00:28;;;;;;;9.67;6.50;;;15.30;92.90;;;;;;4993362;28;20042;-70
2021/09/04 00:02:53;;;;;;;10.20;6.37;;;15.30;92.80;;;;;;4993233;28;20042;-70
2021/09/04 00:05:19;;;;;;;11.23;6.40;;;15.30;93.00;;;;;;4992383;28;20085;-70
2021/09/04 00:07:45;;;;;;;10.30;6.60;;;15.30;93.10;;;;;;4976331;28;20053;-70
2021/09/04 00:10:11;;;;;;;14.37;7.07;;;15.30;93.20;;;;;;4993313;28;20038;-70
2021/09/04 00:12:37;;;;;;;11.13;6.67;;;15.20;93.30;;;;;;4992596;28;20054;-70
2021/09/04 00:15:03;;;;;;;11.37;6.80;;;15.20;93.30;;;;;;4975627;28;20125;-70
2021/09/04 00:17:29;;;;;;;11.70;6.73;;;15.20;93.40;;;;;;4992607;28;20089;-71
2021/09/04 00:19:54;;;;;;;17.10;8.10;;;15.10;93.40;;;;;;4992311;28;20093;-71
2021/09/04 00:22:20;;;;;;;9.93;6.97;;;15.20;93.40;;;;;;4992569;28;20046;-70
2021/09/04 00:24:46;;;;;;;12.23;6.77;;;15.20;93.50;;;;;;4992653;28;20065;-70
2021/09/04 00:27:11;;;;;;;13.00;7.20;;;15.20;93.50;;;;;;4974361;28;20185;-70
2021/09/04 00:29:37;;;;;;;10.97;6.77;;;15.20;93.40;;;;;;4976021;28;20046;-70
2021/09/04 00:32:03;;;;;;;10.63;6.87;;;15.20;93.40;;;;;;4975587;28;20046;-70
2021/09/04 00:34:29;;;;;;;11.47;6.97;;;15.20;93.40;;;;;;4991315;28;20058;-71
2021/09/04 00:36:55;;;;;;;12.60;7.17;;;15.20;93.40;;;;;;4992973;28;20160;-70
2021/09/04 00:39:20;;;;;;;14.67;7.20;;;15.20;93.40;;;;;;4992305;28;20137;-70
2021/09/04 00:41:46;;;;;;;10.60;6.30;;;15.20;93.40;;;;;;4991332;28;20092;-70
2021/09/04 00:44:17;;;;;;;8.10;6.40;;;15.20;93.40;;;;;;4991352;28;20085;-70
2021/09/04 00:46:43;;;;;;;11.07;6.40;;;15.30;93.40;;;;;;4991918;28;20503;-70
2021/09/04 00:49:09;;;;;;;9.23;6.30;;;15.20;93.40;;;;;;4990792;28;20046;-70
2021/09/04 00:51:35;;;;;;;9.43;6.00;;;15.20;93.40;;;;;;4992520;28;20046;-70
2021/09/04 00:54:01;;;;;;;12.77;5.47;;;15.20;93.40;;;;;;4991653;28;20042;-70
2021/09/04 00:56:27;;;;;;;12.17;5.20;;;15.20;93.30;;;;;;4992908;28;20518;-70
2021/09/04 00:58:52;;;;;;;9.03;5.07;;;15.20;93.20;;;;;;4992480;28;20047;-70
2021/09/04 01:01:18;;;;;;;9.40;4.70;;;15.20;93.10;;;;;;4991233;28;20046;-70
2021/09/04 01:03:44;;;;;;;7.40;4.10;;;15.30;93.00;;;;;;4991858;28;20042;-70
2021/09/04 01:06:11;;;;;;;7.63;4.27;;;15.20;93.00;;;;;;4991859;28;20049;-70
2021/09/04 01:08:37;;;;;;;8.73;5.20;;;15.20;93.00;;;;;;4991291;28;20094;-70
2021/09/04 01:11:03;;;;;;;7.20;4.60;;;15.20;93.10;;;;;;4990753;28;20062;-70
2021/09/04 01:13:28;;;;;;;9.47;5.43;;;15.20;93.10;;;;;;4991443;28;20057;-70
2021/09/04 01:15:54;;;;;;;9.70;5.13;;;15.20;93.10;;;;;;4989850;28;20038;-70
2021/09/04 01:18:21;;;;;;;9.30;5.60;;;15.20;93.20;;;;;;4990189;28;20046;-70
2021/09/04 01:20:47;;;;;;;12.23;6.50;;;15.20;93.40;;;;;;4992012;28;20050;-70
2021/09/04 01:23:12;;;;;;;11.93;5.87;;;15.20;93.40;;;;;;4990785;28;20062;-70
2021/09/04 01:25:41;;;;;;;11.80;5.73;;;15.20;93.40;;;;;;4990398;28;20090;-70
2021/09/04 01:28:07;;;;;;;12.67;6.27;;;15.20;93.40;;;;;;4991863;28;20384;-70
2021/09/04 01:30:34;;;;;;;12.40;7.73;;;15.20;93.40;;;;;;4989478;28;20097;-70
2021/09/04 01:33:00;;;;;;;12.23;7.53;;;15.10;93.40;;;;;;4991499;28;20121;-70
2021/09/04 01:35:26;;;;;;;11.17;6.83;;;15.10;93.40;;;;;;4991148;28;20081;-70
2021/09/04 01:37:52;;;;;;;12.77;7.93;;;15.10;93.40;;;;;;4993161;28;20050;-70
2021/09/04 01:40:19;;;;;;;14.30;7.80;;;15.10;93.50;;;;;;4995072;28;20054;-70
2021/09/04 01:42:47;;;;;;;16.87;7.37;;;15.10;93.50;;;;;;4995372;28;20399;-70
2021/09/04 01:45:13;;;;;;;10.97;6.90;;;15.10;93.50;;;;;;4994442;28;20487;-70
2021/09/04 01:47:40;;;;;;;9.10;6.00;;;15.10;93.50;;;;;;4994068;28;20053;-70
2021/09/04 01:50:10;;;;;;;9.03;5.63;;;15.10;93.30;;;;;;4995194;28;20050;-70
2021/09/04 01:52:39;;;;;;;9.93;5.33;;;15.10;93.20;;;;;;4995224;28;20042;-70
2021/09/04 01:55:06;;;;;;;9.47;5.80;;;15.10;93.10;;;;;;4993995;28;20054;-70
2021/09/04 01:57:32;;;;;;;8.53;4.80;;;15.10;93.10;;;;;;4993418;28;20053;-70
2021/09/04 01:59:57;;;;;;;8.73;6.00;;;15.10;93.00;;;;;;4993742;28;20058;-70
2021/09/04 02:02:23;;;;;;;9.97;5.73;;;15.10;93.10;;;;;;4994672;28;20052;-70
2021/09/04 02:04:48;;;;;;;10.43;5.07;;;15.10;93.20;;;;;;4993001;28;20042;-70
2021/09/04 02:07:14;;;;;;;8.60;5.00;;;15.10;93.30;;;;;;4994623;28;20121;-70
2021/09/04 02:09:40;;;;;;;8.90;4.77;;;15.00;93.30;;;;;;4993608;28;20046;-70
2021/09/04 02:12:06;;;;;;;9.13;5.23;;;15.00;93.40;;;;;;4994189;28;20429;-69
2021/09/04 02:14:32;;;;;;;8.43;5.10;;;15.10;93.40;;;;;;4994709;28;20437;-69
2021/09/04 02:16:57;;;;;;;8.77;5.50;;;15.10;93.40;;;;;;4993592;28;20050;-69
2021/09/04 02:19:23;;;;;;;9.43;5.40;;;15.00;93.40;;;;;;4993855;28;20058;-70
2021/09/04 02:21:49;;;;;;;11.67;6.80;;;15.10;93.40;;;;;;4994845;28;20128;-69
2021/09/04 02:24:14;;;;;;;8.63;5.03;;;15.10;93.40;;;;;;4994353;28;20050;-70
2021/09/04 02:26:40;;;;;;;9.43;5.60;;;15.10;93.40;;;;;;4993626;28;20483;-70
2021/09/04 02:29:05;;;;;;;7.17;3.97;;;15.10;93.30;;;;;;4992914;28;20053;-70
2021/09/04 02:31:31;;;;;;;10.43;4.60;;;15.10;93.30;;;;;;4993959;28;20073;-70
2021/09/04 02:33:57;;;;;;;8.47;4.50;;;15.10;93.20;;;;;;4992139;28;20156;-69
2021/09/04 02:36:23;;;;;;;7.17;4.47;;;15.10;93.20;;;;;;4994156;28;20049;-69
2021/09/04 02:38:49;;;;;;;6.93;4.53;;;15.10;93.20;;;;;;4994246;28;20197;-69
2021/09/04 02:41:15;;;;;;;7.07;4.40;;;15.10;93.20;;;;;;4992088;28;20153;-69
2021/09/04 02:43:41;;;;;;;9.90;4.50;;;15.10;93.30;;;;;;4994241;28;20571;-69
2021/09/04 02:46:07;;;;;;;9.23;4.77;;;15.10;93.40;;;;;;4992360;28;20491;-70
2021/09/04 02:48:34;;;;;;;7.73;4.33;;;15.00;93.50;;;;;;4993411;28;20077;-70
2021/09/04 02:51:00;;;;;;;7.97;4.77;;;15.00;93.60;;;;;;4992648;28;20042;-70
2021/09/04 02:53:26;;;;;;;6.03;4.20;;;15.00;93.60;;;;;;4993080;28;20395;-70
2021/09/04 02:55:52;;;;;;;8.10;4.80;;;15.00;93.70;;;;;;4992488;28;20042;-70
2021/09/04 02:58:17;;;;;;;7.80;4.50;;;15.00;93.70;;;;;;4993564;28;20388;-70
2021/09/04 03:00:43;;;;;;;9.03;4.70;;;15.00;93.70;;;;;;4993652;28;20141;-70
2021/09/04 03:03:09;;;;;;;6.53;4.23;;;15.00;93.80;;;;;;4993532;28;20053;-70
2021/09/04 03:05:35;;;;;;;6.83;4.33;;;15.00;93.80;;;;;;4992528;28;20084;-70
2021/09/04 03:08:01;;;;;;;8.40;4.10;;;15.00;93.80;;;;;;4992836;28;20042;-70
2021/09/04 03:10:27;;;;;;;8.23;4.07;;;14.90;93.80;;;;;;4991927;28;20092;-70
2021/09/04 03:12:53;;;;;;;8.23;4.53;;;15.00;94.00;;;;;;4993645;28;20352;-70
2021/09/04 03:15:18;;;;;;;7.27;4.20;;;15.00;94.00;;;;;;4992606;28;20053;-70
2021/09/04 03:17:44;;;;;;;8.70;4.17;;;15.00;94.00;;;;;;4993764;28;20117;-70
2021/09/04 03:20:11;;;;;;;8.47;4.13;;;15.00;94.00;;;;;;4993117;28;20390;-70
2021/09/04 03:22:36;;;;;;;10.87;3.87;;;15.00;94.10;;;;;;4991327;28;20046;-70
2021/09/04 03:25:03;;;;;;;8.90;4.00;;;15.00;94.00;;;;;;4993341;28;20057;-70
2021/09/04 03:27:29;;;;;;;9.43;4.90;;;15.00;93.90;;;;;;4992994;28;20046;-70
2021/09/04 03:29:55;;;;;;;9.27;3.80;;;15.00;93.90;;;;;;4992584;28;20133;-70
2021/09/04 03:32:21;;;;;;;7.20;3.53;;;15.00;94.00;;;;;;4992873;28;20086;-70
2021/09/04 03:34:47;;;;;;;6.17;3.90;;;14.90;94.00;;;;;;4993245;28;20094;-70
2021/09/04 03:37:12;;;;;;;8.10;3.87;;;14.90;94.00;;;;;;4992688;28;20113;-70
2021/09/04 03:39:38;;;;;;;9.03;4.00;;;15.00;94.00;;;;;;4991738;28;20046;-70
2021/09/04 03:42:04;;;;;;;6.03;3.80;;;15.00;94.00;;;;;;4992206;28;20046;-70
2021/09/04 03:44:30;;;;;;;10.70;4.17;;;15.00;94.00;;;;;;4992134;28;20046;-69
2021/09/04 03:46:57;;;;;;;8.90;3.40;;;14.90;93.90;;;;;;4993419;28;20503;-70
2021/09/04 03:49:22;;;;;;;8.70;3.53;;;15.00;93.80;;;;;;4992734;28;20495;-70
2021/09/04 03:51:48;;;;;;;7.63;3.23;;;15.00;93.60;;;;;;4992371;28;20088;-70
2021/09/04 03:54:13;;;;;;;9.37;3.80;;;15.00;93.40;;;;;;4991402;28;20081;-70
2021/09/04 03:56:39;;;;;;;8.37;4.53;;;15.00;93.20;;;;;;4992038;28;20145;-70
2021/09/04 03:59:05;;;;;;;9.00;4.73;;;15.00;93.10;;;;;;4991853;28;20101;-69
2021/09/04 04:01:30;;;;;;;10.93;5.80;;;15.00;92.90;;;;;;4992745;28;20376;-70
2021/09/04 04:03:56;;;;;;;7.23;5.27;;;15.00;92.80;;;;;;4992027;28;20050;-69
2021/09/04 04:06:21;;;;;;;7.93;4.50;;;15.00;92.70;;;;;;4992500;28;20112;-70
2021/09/04 04:08:50;;;;;;;12.10;5.63;;;15.00;92.70;;;;;;4991360;28;20407;-70
2021/09/04 04:11:15;;;;;;;8.60;4.43;;;15.00;92.70;;;;;;4990139;28;20047;-70
2021/09/04 04:13:44;;;;;;;7.63;5.50;;;14.90;92.60;;;;;;4991573;28;20046;-70
2021/09/04 04:16:09;;;;;;;8.30;5.40;;;14.90;92.60;;;;;;4990592;28;20384;-70
2021/09/04 04:18:36;;;;;;;10.60;5.33;;;14.90;92.70;;;;;;4990863;28;20391;-69
2021/09/04 04:21:02;;;;;;;11.87;5.93;;;14.90;92.70;;;;;;4990935;28;20526;-70
2021/09/04 04:23:28;;;;;;;8.77;5.00;;;14.90;92.70;;;;;;4991910;28;20069;-70
2021/09/04 04:25:54;;;;;;;7.90;5.17;;;14.90;92.70;;;;;;4991649;28;20046;-69
2021/09/04 04:28:19;;;;;;;8.50;5.47;;;14.90;92.70;;;;;;4990786;28;20046;-70
2021/09/04 04:30:45;;;;;;;7.80;5.40;;;14.90;92.80;;;;;;4990802;28;20049;-70
2021/09/04 04:33:11;;;;;;;7.60;5.17;;;14.90;92.90;;;;;;4991037;28;20054;-70
2021/09/04 04:35:37;;;;;;;8.93;5.57;;;14.90;92.90;;;;;;4992125;28;20062;-70
2021/09/04 04:38:03;;;;;;;11.33;5.80;;;14.90;93.00;;;;;;4992390;28;20531;-70
2021/09/04 04:40:29;;;;;;;8.40;5.10;;;14.90;93.10;;;;;;4991015;28;20045;-70
2021/09/04 04:42:54;;;;;;;8.07;5.33;;;14.90;93.20;;;;;;4991975;28;20050;-70
2021/09/04 04:45:20;;;;;;;8.43;5.13;;;14.90;93.20;;;;;;4992078;28;20046;-71
2021/09/04 04:47:46;;;;;;;8.30;4.70;;;14.90;93.10;;;;;;4991232;28;20435;-71
2021/09/04 04:50:11;;;;;;;10.60;4.67;;;14.80;93.00;;;;;;4991281;28;20050;-71
2021/09/04 04:52:38;;;;;;;8.30;5.00;;;14.80;93.10;;;;;;4992770;28;20053;-71
2021/09/04 04:55:04;;;;;;;9.47;5.10;;;14.80;93.10;;;;;;4991441;28;20061;-70
2021/09/04 04:57:30;;;;;;;11.87;5.00;;;14.80;93.00;;;;;;4991850;28;20553;-69
2021/09/04 04:59:56;;;;;;;11.00;4.77;;;14.80;93.10;;;;;;4991763;28;20050;-71
2021/09/04 05:02:21;;;;;;;13.87;5.57;;;14.80;93.20;;;;;;4989959;28;20128;-70
2021/09/04 05:04:47;;;;;;;6.67;4.90;;;14.80;93.30;;;;;;4990815;28;20140;-70
2021/09/04 05:07:12;;;;;;;8.20;4.93;;;14.70;93.40;;;;;;4991228;28;20103;-70
2021/09/04 05:09:38;;;;;;;9.30;5.47;;;14.70;93.30;;;;;;4992255;28;20050;-70
2021/09/04 05:12:04;;;;;;;8.60;4.90;;;14.70;93.20;;;;;;4995259;28;20141;-70
2021/09/04 05:14:29;;;;;;;10.57;5.13;;;14.80;93.30;;;;;;4995293;28;20074;-70
2021/09/04 05:16:55;;;;;;;8.80;4.80;;;14.70;93.30;;;;;;4996194;28;20038;-69
2021/09/04 05:19:20;;;;;;;9.50;4.60;;;14.70;93.30;;;;;;4996164;28;20146;-69
2021/09/04 05:21:46;;;;;;;10.80;5.70;;;14.70;93.40;;;;;;4995739;28;20073;-70
2021/09/04 05:24:11;;;;;;;10.23;5.03;;;14.70;93.50;;;;;;4995858;28;20399;-69
2021/09/04 05:26:37;;;;;;;6.20;4.33;;;14.70;93.40;;;;;;4994937;28;20141;-70
2021/09/04 05:29:03;;;;;;;7.13;5.27;;;14.70;93.30;;;;;;4993624;28;20140;-69
2021/09/04 05:31:28;;;;;;;8.23;4.33;;;14.80;93.30;;;;;;4994120;28;20034;-69
2021/09/04 05:33:54;;;;;;;8.83;4.43;;;14.80;93.30;;;;;;4993719;28;20052;-70
2021/09/04 05:36:20;;;;;;;6.03;4.73;;;14.80;93.30;;;;;;4994373;28;20128;-70
2021/09/04 05:38:45;;;;;;;8.80;4.10;;;14.80;93.30;;;;;;4995232;28;20140;-70
2021/09/04 05:41:11;;;;;;;9.30;4.73;;;14.90;93.30;;;;;;4993785;28;20053;-69
2021/09/04 05:43:36;;;;;;;8.83;4.83;;;14.90;93.30;;;;;;4994482;28;20046;-70
2021/09/04 05:46:02;;;;;;;8.80;3.83;;;14.90;93.30;;;;;;4995042;28;20110;-69
2021/09/04 05:48:27;;;;;;;7.13;4.90;;;14.90;93.30;;;;;;4994800;28;20077;-69
2021/09/04 05:50:53;;;;;;;8.07;4.13;;;14.90;93.30;;;;;;4994217;28;20034;-70
2021/09/04 05:53:18;;;;;;;8.40;4.20;;;15.00;93.30;;;;;;4993452;28;20141;-70
2021/09/04 05:55:44;;;;;;;10.53;4.50;;;14.90;93.20;;;;;;4994935;28;20045;-69
2021/09/04 05:58:10;;;;;;;8.90;4.03;;;14.90;93.20;;;;;;4994062;28;20046;-69
2021/09/04 06:00:35;;;;;;;8.70;4.07;;;14.90;93.20;;;;;;4994859;28;20522;-69
2021/09/04 06:03:01;;;;;;;7.27;4.37;;;15.00;93.40;;;;;;4994738;28;20400;-69
2021/09/04 06:05:28;;;;;;;8.43;4.30;;;14.90;93.50;;;;;;4992436;28;20096;-68
2021/09/04 06:07:54;;;;;;;9.47;4.00;;;14.90;93.60;;;;;;4993436;28;20046;-69
2021/09/04 06:10:20;;;;;;;9.67;4.40;;;15.00;93.70;;;;;;4993903;28;20404;-70
2021/09/04 06:12:45;;;;;;;8.03;3.70;;;15.00;93.70;;;;;;4993333;28;20034;-70
2021/09/04 06:15:11;;;;;;;10.13;5.30;;;15.00;93.70;;;;;;4992990;28;20228;-69
2021/09/04 06:17:37;;;;;;;6.80;4.37;;;15.00;93.80;;;;;;4994001;28;20042;-69
2021/09/04 06:20:05;;;;;;;8.73;4.83;;;15.00;93.90;;;;;;4994496;28;20035;-69
2021/09/04 06:22:30;;;;;;;9.40;4.57;;;15.00;93.80;;;;;;4993906;28;20522;-70
2021/09/04 06:24:56;;;;;;;8.07;4.23;;;15.00;93.70;;;;;;4994329;28;20038;-70
2021/09/04 06:27:21;;;;;;;10.97;4.67;;;15.10;93.80;;;;;;4992784;28;20042;-69
2021/09/04 06:29:47;;;;;;;8.10;4.37;;;15.10;93.80;;;;;;4993161;28;20056;-69
2021/09/04 06:32:12;;;;;;;6.90;3.77;;;15.10;93.70;;;;;;4993396;28;20082;-70
2021/09/04 06:34:40;;;;;;;6.77;3.70;;;15.10;93.60;;;;;;4994055;28;20046;-69
2021/09/04 06:37:06;;;;;;;9.73;4.50;;;15.20;93.50;;;;;;4991978;28;20043;-70
2021/09/04 06:39:31;;;;;;;7.80;4.03;;;15.20;93.50;;;;;;4992251;28;20043;-70
2021/09/04 06:41:58;;;;;;;8.80;3.30;;;15.20;93.40;;;;;;4993193;28;20120;-69
2021/09/04 06:44:24;;;;;;;6.33;3.20;;;15.30;93.20;;;;;;4994218;28;20451;-68
2021/09/04 06:46:49;;;;;;;6.03;3.60;;;15.30;93.00;;;;;;4993645;28;20065;-69
2021/09/04 06:49:15;;;;;;;7.20;3.10;;;15.30;93.00;;;;;;4994146;28;20518;-69
2021/09/04 06:51:40;;;;;;;10.10;3.30;;;15.40;92.90;;;;;;4992898;28;20049;-69
2021/09/04 06:54:06;;;;;;;8.70;3.70;;;15.40;92.80;;;;;;4993368;28;20064;-69
2021/09/04 06:56:32;;;;;;;7.80;3.77;;;15.40;92.80;;;;;;4992937;28;20093;-69
2021/09/04 06:58:57;;;;;;;8.03;3.27;;;15.50;92.80;;;;;;4993795;28;20137;-67
2021/09/04 07:01:23;;;;;;;6.47;3.37;;;15.50;92.70;;;;;;4992645;28;20495;-67
2021/09/04 07:03:48;;;;;;;9.47;3.80;;;15.50;92.80;;;;;;4993484;28;20053;-66
2021/09/04 07:06:14;;;;;;;9.23;4.23;;;15.50;92.80;;;;;;4991665;28;20089;-67
2021/09/04 07:08:39;;;;;;;5.43;3.37;;;15.60;92.80;;;;;;4992854;28;20046;-67
2021/09/04 07:11:05;;;;;;;6.63;3.23;;;15.60;92.90;;;;;;4993423;28;20144;-67
2021/09/04 07:13:31;;;;;;;7.73;3.70;;;15.60;92.80;;;;;;4993086;28;20049;-67
2021/09/04 07:15:57;;;;;;;9.73;4.30;;;15.60;92.60;;;;;;4992599;28;20069;-67
2021/09/04 07:18:23;;;;;;;9.03;3.30;;;15.60;92.50;;;;;;4991560;28;20042;-67
2021/09/04 07:20:50;;;;;;;10.33;3.57;;;15.70;92.30;;;;;;4991474;28;20077;-70
2021/09/04 07:23:16;;;;;;;6.60;2.70;;;15.70;92.10;;;;;;4992806;28;20038;-69
2021/09/04 07:25:41;;;;;;;6.30;2.73;;;15.80;91.80;;;;;;4973910;28;20492;-69
2021/09/04 07:28:10;;;;;;;10.17;3.73;;;15.80;91.50;;;;;;4971461;28;20467;-69
2021/09/04 07:30:36;;;;;;;11.33;2.63;;;15.90;91.30;;;;;;4972828;28;20065;-69
2021/09/04 07:33:02;;;;;;;8.20;2.67;;;16.00;91.50;;;;;;4972896;28;20492;-69
2021/09/04 07:35:28;;;;;;;5.53;2.43;;;16.00;90.90;;;;;;4971805;28;20069;-69
2021/09/04 07:37:54;;;;;;;7.17;2.43;;;16.10;90.80;;;;;;4972573;28;20192;-69
2021/09/04 07:40:19;;;;;;;5.03;2.43;;;16.10;90.50;;;;;;4972086;28;20546;-68
2021/09/04 07:42:45;;;;;;;5.53;2.13;;;16.10;90.30;;;;;;4972763;28;20126;-69
2021/09/04 07:45:11;;;;;;;6.17;2.20;;;16.10;89.80;;;;;;4972334;28;20109;-69
2021/09/04 07:47:36;;;;;;;5.83;2.40;;;16.10;89.50;;;;;;4973540;28;20050;-69
2021/09/04 07:50:03;;;;;;;5.37;2.23;;;16.20;89.90;;;;;;4972454;28;20042;-69
2021/09/04 07:52:28;;;;;;;5.93;2.73;;;16.20;90.00;;;;;;4973061;28;20047;-66
2021/09/04 07:54:54;;;;;;;5.33;2.90;;;16.20;90.00;;;;;;4972237;28;20058;-69
2021/09/04 07:57:19;;;;;;;6.43;2.83;;;16.20;90.00;;;;;;4970649;28;20133;-68
2021/09/04 07:59:45;;;;;;;7.60;2.53;;;16.20;89.50;;;;;;4977871;28;20192;-68
2021/09/04 08:02:10;;;;;;;6.93;2.77;;;16.30;89.00;;;;;;4988070;28;20173;-69
2021/09/04 08:04:36;;;;;;;6.30;2.33;;;16.30;88.60;;;;;;4987748;28;20205;-68
2021/09/04 08:07:02;;;;;;;6.63;2.63;;;16.30;88.70;;;;;;4988937;28;20129;-69
2021/09/04 08:09:27;;;;;;;9.40;3.00;;;16.40;88.70;;;;;;4987540;28;20066;-68
2021/09/04 08:11:53;;;;;;;7.87;2.67;;;16.40;88.50;;;;;;4987240;28;20053;-69
2021/09/04 08:14:19;;;;;;;7.13;3.10;;;16.50;88.50;;;;;;4989695;28;20097;-68
2021/09/04 08:16:44;;;;;;;6.53;2.87;;;16.60;88.30;;;;;;4989127;28;20121;-68
2021/09/04 08:19:10;;;;;;;5.73;2.50;;;16.70;87.60;;;;;;4988256;28;20652;-69
2021/09/04 08:21:36;;;;;;;6.07;2.63;;;16.70;86.80;;;;;;4988483;28;20444;-69
2021/09/04 08:24:06;;;;;;;8.33;2.70;;;16.80;86.40;;;;;;4986899;28;20404;-69
2021/09/04 08:26:34;;;;;;;4.27;2.43;;;16.90;86.20;;;;;;4989483;28;20042;-69
2021/09/04 08:29:00;;;;;;;5.77;2.40;;;16.90;86.20;;;;;;4988940;28;20064;-69
2021/09/04 08:31:25;;;;;;;6.27;3.10;;;17.00;86.60;;;;;;4987359;28;20049;-68
2021/09/04 08:33:51;;;;;;;5.63;2.50;;;17.00;86.30;;;;;;4988668;28;20043;-69
2021/09/04 08:36:17;;;;;;;7.47;2.50;;;17.10;86.00;;;;;;4988716;28;20050;-68
2021/09/04 08:38:42;;;;;;;7.00;2.70;;;17.10;85.40;;;;;;4988447;28;20054;-68
2021/09/04 08:41:08;;;;;;;5.90;2.13;;;17.10;85.40;;;;;;4988019;28;20066;-68
2021/09/04 08:43:34;;;;;;;5.77;2.20;;;17.10;85.10;;;;;;4988818;28;20043;-68
2021/09/04 08:46:00;;;;;;;6.53;2.80;;;17.10;85.10;;;;;;4987019;28;20404;-68
2021/09/04 08:48:26;;;;;;;8.83;3.00;;;17.10;85.40;;;;;;4987364;28;20038;-69
2021/09/04 08:50:52;;;;;;;10.17;2.90;;;17.20;85.60;;;;;;4988938;28;20096;-69
2021/09/04 08:53:20;;;;;;;4.10;2.33;;;17.20;85.20;;;;;;4986883;28;20054;-69
2021/09/04 08:55:46;;;;;;;6.03;2.43;;;17.30;84.70;;;;;;4987341;28;20140;-69
2021/09/04 08:58:11;;;;;;;6.40;3.00;;;17.30;84.30;;;;;;4988998;28;20129;-69
2021/09/04 09:00:39;;;;;;;5.90;2.50;;;17.40;83.90;;;;;;4987484;28;20497;-68
2021/09/04 09:03:06;;;;;;;9.03;2.93;;;17.40;84.00;;;;;;4987015;28;20124;-68
2021/09/04 09:05:42;;;;;;;5.40;2.80;;;17.40;83.80;;;;;;4987534;28;20089;-69
2021/09/04 09:08:16;;;;;;;6.43;3.17;;;17.50;82.90;;;;;;4986607;28;20054;-69
2021/09/04 09:10:42;;;;;;;6.83;2.97;;;17.60;82.60;;;;;;4987182;28;20077;-69
2021/09/04 09:13:08;;;;;;;7.13;3.27;;;17.60;82.60;;;;;;4986669;28;20093;-72
2021/09/04 09:15:37;;;;;;;6.63;3.00;;;17.60;82.50;;;;;;4986627;28;20459;-71
2021/09/04 09:18:10;;;;;;;4.90;2.50;;;17.70;82.40;;;;;;4987965;28;20057;-71
2021/09/04 09:20:37;;;;;;;8.63;3.27;;;17.70;81.80;;;;;;4986511;28;20455;-72
2021/09/04 09:23:17;;;;;;;6.50;2.90;;;17.70;81.60;;;;;;4987181;28;20100;-71
2021/09/04 09:25:44;;;;;;;7.27;3.20;;;17.80;81.40;;;;;;4987753;28;20494;-71
2021/09/04 09:28:17;;;;;;;9.77;3.10;;;17.70;81.40;;;;;;4986457;28;20058;-72
2021/09/04 09:30:44;;;;;;;9.20;3.33;;;17.70;81.10;;;;;;4987021;28;20686;-72
2021/09/04 09:33:13;;;;;;;6.80;3.77;;;17.80;80.90;;;;;;4987832;28;20662;-71
2021/09/04 09:35:44;;;;;;;10.30;3.97;;;17.80;80.50;;;;;;4986762;28;20081;-70
2021/09/04 09:38:12;;;;;;;10.73;4.07;;;17.80;80.00;;;;;;4988171;28;20054;-70
2021/09/04 09:40:39;;;;;;;9.37;3.90;;;17.90;79.50;;;;;;4988106;28;20074;-69
2021/09/04 09:43:22;;;;;;;7.40;3.63;;;17.90;78.80;;;;;;4986160;28;20144;-68
2021/09/04 09:46:00;;;;;;;11.87;4.20;;;18.00;78.30;;;;;;4990439;28;20069;-69
2021/09/04 09:48:26;;;;;;;7.57;3.90;;;18.00;78.30;;;;;;4989079;28;20434;-68
2021/09/04 09:50:56;;;;;;;10.10;4.13;;;18.00;78.50;;;;;;4990944;28;20042;-69
2021/09/04 09:53:23;;;;;;;7.03;3.97;;;18.10;78.30;;;;;;4990880;28;20035;-70
2021/09/04 09:55:51;;;;;;;8.83;3.90;;;18.10;78.50;;;;;;4991007;28;20122;-69
2021/09/04 09:58:17;;;;;;;8.10;3.50;;;18.10;78.80;;;;;;4994658;28;20168;-69
2021/09/04 10:00:44;;;;;;;7.80;3.23;;;18.20;78.00;;;;;;4994520;28;20043;-70
2021/09/04 10:03:12;;;;;;;9.00;4.87;;;18.20;77.30;;;;;;4994035;28;20372;-70
2021/09/04 10:05:38;;;;;;;10.43;3.97;;;18.20;77.90;;;;;;4993497;28;20074;-70
2021/09/04 10:08:04;;;;;;;8.73;3.87;;;18.20;77.70;;;;;;4994727;28;20038;-70
2021/09/04 10:10:38;;;;;;;12.10;4.80;;;18.10;77.90;;;;;;4992517;28;20484;-70
2021/09/04 10:13:04;;;;;;;13.33;5.70;;;18.10;77.70;;;;;;4994953;28;20053;-70
2021/09/04 10:15:32;;;;;;;8.00;5.23;;;18.10;77.90;;;;;;4994926;28;20057;-69
2021/09/04 10:18:01;;;;;;;11.63;5.20;;;18.20;77.90;;;;;;4993571;28;20475;-71
2021/09/04 10:20:29;;;;;;;10.27;4.67;;;18.20;77.50;;;;;;4994186;28;20046;-70
2021/09/04 10:23:15;;;;;;;10.10;5.90;;;18.20;77.70;;;;;;4994699;28;20411;-70
2021/09/04 10:25:40;;;;;;;11.53;6.47;;;18.20;78.30;;;;;;4993852;28;20043;-70
2021/09/04 10:28:06;;;;;;;10.37;6.53;;;18.20;77.50;;;;;;4994261;28;20162;-70
2021/09/04 10:30:34;;;;;;;9.97;6.60;;;18.20;77.50;;;;;;4993693;28;20078;-70
2021/09/04 10:33:05;;;;;;;11.60;6.47;;;18.20;77.40;;;;;;4993140;28;20050;-69
2021/09/04 10:35:51;;;;;;;14.32;6.78;;;18.20;77.70;;;;;;4994182;28;20068;-69
2021/09/04 10:38:20;;;;;;;11.73;6.90;;;18.10;78.00;;;;;;4992599;28;20484;-69
2021/09/04 10:41:05;;;;;;;11.27;6.73;;;18.10;78.20;;;;;;4991300;28;20043;-69
2021/09/04 10:43:32;;;;;;;13.17;5.73;;;18.20;78.00;;;;;;4992474;28;20046;-69
2021/09/04 10:45:59;;;;;;;11.77;6.60;;;18.20;77.80;;;;;;4991413;28;20046;-70
2021/09/04 10:48:36;;;;;;;13.40;7.63;;;18.30;77.10;;;;;;4993058;28;20049;-69
2021/09/04 10:51:08;;;;;;;10.07;7.10;;;18.40;76.60;;;;;;4993843;28;20039;-69
2021/09/04 10:53:52;;;;;;;11.17;7.00;;;18.60;76.30;;;;;;4993355;28;20487;-69
2021/09/04 10:56:20;;;;;;;13.67;7.50;;;18.70;76.20;;;;;;4993792;28;20052;-69
2021/09/04 10:58:46;;;;;;;13.87;7.40;;;18.80;75.80;;;;;;4992956;28;20042;-70
2021/09/04 11:01:17;;;;;;;13.57;7.60;;;18.90;74.90;;;;;;4992184;28;20551;-70
2021/09/04 11:03:43;;;;;;;10.88;6.93;;;18.90;73.90;;;;;;4992680;28;20054;-70
2021/09/04 11:06:18;;;;;;;11.93;9.03;;;19.00;74.00;;;;;;4993065;28;20068;-69
2021/09/04 11:08:45;;;;;;;12.10;8.80;;;19.10;73.70;;;;;;4991637;28;20061;-70
2021/09/04 11:11:24;;;;;;;11.47;8.80;;;19.10;73.20;;;;;;4993706;28;20042;-69
2021/09/04 11:13:51;;;;;;;17.07;8.70;;;19.20;73.00;;;;;;4992194;28;20050;-70
2021/09/04 11:16:30;;;;;;;18.10;9.37;;;19.30;73.80;;;;;;4992010;28;20045;-69
2021/09/04 11:19:14;;;;;;;13.43;8.87;;;19.40;73.40;;;;;;4994221;28;20054;-70
2021/09/04 11:21:48;;;;;;;12.70;8.63;;;19.50;72.20;;;;;;4993365;28;20053;-69
2021/09/04 11:24:19;;;;;;;19.60;9.10;;;19.60;71.20;;;;;;4992038;28;20452;-71
2021/09/04 11:27:12;;;;;;;14.27;9.97;;;19.70;71.40;;;;;;4992901;28;20092;-70
2021/09/04 11:29:39;;;;;;;14.80;8.50;;;19.90;71.40;;;;;;4992080;28;20058;-71
2021/09/04 11:32:05;;;;;;;13.67;8.30;;;19.90;71.20;;;;;;4993331;28;20038;-70
2021/09/04 11:35:00;;;;;;;12.73;8.03;;;19.90;71.10;;;;;;4992342;28;20107;-70
2021/09/04 11:37:27;;;;;;;16.30;8.10;;;19.90;70.50;;;;;;4990042;28;20046;-70
2021/09/04 11:40:11;;;;;;;16.83;9.00;;;19.80;71.80;;;;;;4992122;28;20050;-69
2021/09/04 11:42:56;;;;;;;15.53;9.57;;;19.70;71.90;;;;;;4992479;28;20078;-70
2021/09/04 11:45:23;;;;;;;12.00;8.20;;;19.80;72.00;;;;;;4991863;28;20042;-70
2021/09/04 11:47:51;;;;;;;10.90;7.47;;;19.80;72.00;;;;;;4993112;28;20369;-71
2021/09/04 11:50:26;;;;;;;11.40;8.93;;;19.80;71.50;;;;;;4993025;28;20122;-70
2021/09/04 11:52:52;;;;;;;12.60;7.63;;;19.70;71.50;;;;;;4992042;28;20081;-70
2021/09/04 11:55:23;;;;;;;13.77;7.57;;;19.60;72.00;;;;;;4991963;28;20538;-70
2021/09/04 11:57:56;;;;;;;13.00;7.30;;;19.50;72.10;;;;;;4991703;28;20047;-70
2021/09/04 12:00:29;;;;;;;10.17;7.37;;;19.50;71.80;;;;;;4990978;28;20068;-70
2021/09/04 12:02:56;;;;;;;15.90;8.20;;;19.50;71.90;;;;;;4992199;28;20550;-70
2021/09/04 12:05:24;;;;;;;14.90;8.57;;;19.50;71.70;;;;;;4992582;28;20042;-70
2021/09/04 12:07:52;;;;;;;14.60;8.17;;;19.40;71.60;;;;;;4991636;28;20483;-70
2021/09/04 12:10:23;;;;;;;13.23;8.00;;;19.50;71.70;;;;;;4990535;28;20089;-70
2021/09/04 12:12:55;;;;;;;9.90;7.33;;;19.70;71.40;;;;;;4991944;28;20101;-69
2021/09/04 12:15:21;;;;;;;13.03;7.70;;;19.70;70.70;;;;;;4992769;28;20472;-70
2021/09/04 12:17:52;;;;;;;14.00;7.27;;;19.70;70.70;;;;;;4992145;28;20133;-70
2021/09/04 12:20:19;;;;;;;16.48;8.18;;;19.60;70.20;;;;;;4990734;28;20137;-70
2021/09/04 12:22:45;;;;;;;11.60;7.27;;;19.70;70.10;;;;;;4992850;28;20039;-69
2021/09/04 12:25:24;;;;;;;9.90;6.67;;;19.80;69.70;;;;;;4990559;28;20146;-69
2021/09/04 12:27:58;;;;;;;13.27;7.03;;;20.00;68.90;;;;;;4992776;28;20129;-69
2021/09/04 12:30:24;;;;;;;14.70;7.43;;;20.00;68.50;;;;;;4991720;28;20116;-70
2021/09/04 12:33:04;;;;;;;11.10;6.97;;;20.00;68.70;;;;;;4992920;28;20047;-70
2021/09/04 12:35:49;;;;;;;13.10;7.13;;;20.10;67.80;;;;;;4992609;28;20522;-69
2021/09/04 12:38:20;;;;;;;12.03;5.90;;;20.10;67.40;;;;;;4991877;28;20057;-69
2021/09/04 12:41:03;;;;;;;9.27;5.60;;;20.10;67.70;;;;;;4992771;28;20054;-70
2021/09/04 12:43:30;;;;;;;9.10;6.10;;;20.20;68.00;;;;;;4991225;28;20042;-69